sensor_id;sensor_type;location;lat;lon;timestamp;temperature;humidity
58951;DHT22;44730;53.158;6.398;2023-03-14T00:00:56;8.70;99.90
58951;DHT22;44730;53.158;6.398;2023-03-14T00:03:22;8.70;99.90
58951;DHT22;44730;53.158;6.398;2023-03-14T00:05:48;8.80;99.90
58951;DHT22;44730;53.158;6.398;2023-03-14T00:08:14;8.80;99.90
58951;DHT22;44730;53.158;6.398;2023-03-14T00:10:39;8.80;99.90
58951;DHT22;44730;53.158;6.398;2023-03-14T00:13:05;8.90;99.90
58951;DHT22;44730;53.158;6.398;2023-03-14T00:15:33;8.90;99.90
58951;DHT22;44730;53.158;6.398;2023-03-14T00:17:59;9.00;99.90
58951;DHT22;44730;53.158;6.398;2023-03-14T00:20:25;9.00;99.90
58951;DHT22;44730;53.158;6.398;2023-03-14T00:22:51;9.10;99.90
58951;DHT22;44730;53.158;6.398;2023-03-14T00:25:17;9.10;99.90
58951;DHT22;44730;53.158;6.398;2023-03-14T00:27:43;9.00;99.90
58951;DHT22;44730;53.158;6.398;2023-03-14T00:30:09;9.00;99.90
58951;DHT22;44730;53.158;6.398;2023-03-14T00:32:35;9.00;99.90
58951;DHT22;44730;53.158;6.398;2023-03-14T00:35:02;9.00;99.90
58951;DHT22;44730;53.158;6.398;2023-03-14T00:37:28;9.00;99.90
58951;DHT22;44730;53.158;6.398;2023-03-14T00:39:54;9.00;99.90
58951;DHT22;44730;53.158;6.398;2023-03-14T00:42:20;9.00;99.90
58951;DHT22;44730;53.158;6.398;2023-03-14T00:44:46;9.00;99.90
58951;DHT22;44730;53.158;6.398;2023-03-14T00:47:12;9.00;99.90
58951;DHT22;44730;53.158;6.398;2023-03-14T00:49:37;8.90;99.90
58951;DHT22;44730;53.158;6.398;2023-03-14T00:52:04;9.00;99.90
58951;DHT22;44730;53.158;6.398;2023-03-14T00:54:30;8.90;99.90
58951;DHT22;44730;53.158;6.398;2023-03-14T00:56:56;8.90;99.90
58951;DHT22;44730;53.158;6.398;2023-03-14T00:59:21;8.90;99.90
58951;DHT22;44730;53.158;6.398;2023-03-14T01:01:47;8.90;99.90
58951;DHT22;44730;53.158;6.398;2023-03-14T01:04:13;8.90;99.90
58951;DHT22;44730;53.158;6.398;2023-03-14T01:06:39;8.90;99.90
58951;DHT22;44730;53.158;6.398;2023-03-14T01:09:05;8.90;99.90
58951;DHT22;44730;53.158;6.398;2023-03-14T01:11:33;8.90;99.90
58951;DHT22;44730;53.158;6.398;2023-03-14T01:14:00;9.00;99.90
58951;DHT22;44730;53.158;6.398;2023-03-14T01:16:30;9.10;99.90
58951;DHT22;44730;53.158;6.398;2023-03-14T01:18:55;9.20;99.90
58951;DHT22;44730;53.158;6.398;2023-03-14T01:21:27;9.30;99.90
58951;DHT22;44730;53.158;6.398;2023-03-14T01:23:55;9.40;99.90
58951;DHT22;44730;53.158;6.398;2023-03-14T01:26:23;9.40;99.90
58951;DHT22;44730;53.158;6.398;2023-03-14T01:28:51;9.50;99.90
58951;DHT22;44730;53.158;6.398;2023-03-14T01:31:18;9.60;99.90
58951;DHT22;44730;53.158;6.398;2023-03-14T01:33:44;9.60;99.90
58951;DHT22;44730;53.158;6.398;2023-03-14T01:36:10;9.70;99.90
58951;DHT22;44730;53.158;6.398;2023-03-14T01:38:37;9.70;99.90
58951;DHT22;44730;53.158;6.398;2023-03-14T01:41:04;9.80;99.90
58951;DHT22;44730;53.158;6.398;2023-03-14T01:43:30;9.90;99.90
58951;DHT22;44730;53.158;6.398;2023-03-14T01:48:48;9.90;99.90
58951;DHT22;44730;53.158;6.398;2023-03-14T01:51:31;10.00;99.90
58951;DHT22;44730;53.158;6.398;2023-03-14T01:54:10;10.00;99.90
58951;DHT22;44730;53.158;6.398;2023-03-14T01:56:38;9.90;99.90
58951;DHT22;44730;53.158;6.398;2023-03-14T01:59:08;9.90;99.90
58951;DHT22;44730;53.158;6.398;2023-03-14T02:01:35;9.90;99.90
58951;DHT22;44730;53.158;6.398;2023-03-14T02:04:03;9.80;99.90
58951;DHT22;44730;53.158;6.398;2023-03-14T02:06:45;9.80;99.90
58951;DHT22;44730;53.158;6.398;2023-03-14T02:09:12;9.80;99.90
58951;DHT22;44730;53.158;6.398;2023-03-14T02:11:38;9.80;99.90
58951;DHT22;44730;53.158;6.398;2023-03-14T02:14:05;9.70;99.90
58951;DHT22;44730;53.158;6.398;2023-03-14T02:16:31;9.70;99.90
58951;DHT22;44730;53.158;6.398;2023-03-14T02:18:57;9.70;99.90
58951;DHT22;44730;53.158;6.398;2023-03-14T02:24:22;9.60;99.90
58951;DHT22;44730;53.158;6.398;2023-03-14T02:29:37;9.70;99.90
58951;DHT22;44730;53.158;6.398;2023-03-14T02:32:05;9.60;99.90
58951;DHT22;44730;53.158;6.398;2023-03-14T02:34:31;9.60;99.90
58951;DHT22;44730;53.158;6.398;2023-03-14T02:36:58;9.50;99.90
58951;DHT22;44730;53.158;6.398;2023-03-14T02:39:32;9.60;99.90
58951;DHT22;44730;53.158;6.398;2023-03-14T02:42:00;9.60;99.90
58951;DHT22;44730;53.158;6.398;2023-03-14T02:44:26;9.60;99.90
58951;DHT22;44730;53.158;6.398;2023-03-14T02:46:52;9.50;99.90
58951;DHT22;44730;53.158;6.398;2023-03-14T02:49:18;9.40;99.90
58951;DHT22;44730;53.158;6.398;2023-03-14T02:51:45;9.40;99.90
58951;DHT22;44730;53.158;6.398;2023-03-14T02:54:11;9.30;99.90
58951;DHT22;44730;53.158;6.398;2023-03-14T02:56:38;9.20;99.90
58951;DHT22;44730;53.158;6.398;2023-03-14T02:59:05;9.20;99.90
58951;DHT22;44730;53.158;6.398;2023-03-14T03:01:31;9.10;99.90
58951;DHT22;44730;53.158;6.398;2023-03-14T03:03:56;9.10;99.90
58951;DHT22;44730;53.158;6.398;2023-03-14T03:06:22;9.10;99.90
58951;DHT22;44730;53.158;6.398;2023-03-14T03:08:48;9.10;99.90
58951;DHT22;44730;53.158;6.398;2023-03-14T03:11:14;9.00;99.90
58951;DHT22;44730;53.158;6.398;2023-03-14T03:13:39;8.90;99.90
58951;DHT22;44730;53.158;6.398;2023-03-14T03:16:05;9.00;99.90
58951;DHT22;44730;53.158;6.398;2023-03-14T03:18:31;8.90;99.90
58951;DHT22;44730;53.158;6.398;2023-03-14T03:21:02;8.80;99.90
58951;DHT22;44730;53.158;6.398;2023-03-14T03:23:29;8.80;99.90
58951;DHT22;44730;53.158;6.398;2023-03-14T03:25:59;8.80;99.90
58951;DHT22;44730;53.158;6.398;2023-03-14T03:28:25;8.70;99.90
58951;DHT22;44730;53.158;6.398;2023-03-14T03:30:51;8.80;99.90
58951;DHT22;44730;53.158;6.398;2023-03-14T03:33:16;8.80;99.90
58951;DHT22;44730;53.158;6.398;2023-03-14T03:35:44;8.70;99.90
58951;DHT22;44730;53.158;6.398;2023-03-14T03:38:11;8.70;99.90
58951;DHT22;44730;53.158;6.398;2023-03-14T03:40:37;8.80;99.90
58951;DHT22;44730;53.158;6.398;2023-03-14T03:43:03;8.80;99.90
58951;DHT22;44730;53.158;6.398;2023-03-14T03:45:29;8.70;99.90
58951;DHT22;44730;53.158;6.398;2023-03-14T03:47:55;8.90;99.90
58951;DHT22;44730;53.158;6.398;2023-03-14T03:50:21;8.80;99.90
58951;DHT22;44730;53.158;6.398;2023-03-14T03:52:47;8.70;99.90
58951;DHT22;44730;53.158;6.398;2023-03-14T03:55:13;8.70;99.90
58951;DHT22;44730;53.158;6.398;2023-03-14T03:57:38;8.70;99.90
58951;DHT22;44730;53.158;6.398;2023-03-14T04:00:05;8.80;99.90
58951;DHT22;44730;53.158;6.398;2023-03-14T04:02:31;8.80;99.90
58951;DHT22;44730;53.158;6.398;2023-03-14T04:04:57;8.70;99.90
58951;DHT22;44730;53.158;6.398;2023-03-14T04:07:23;8.70;99.90
58951;DHT22;44730;53.158;6.398;2023-03-14T04:09:48;8.70;99.90
58951;DHT22;44730;53.158;6.398;2023-03-14T04:12:14;8.80;99.90
58951;DHT22;44730;53.158;6.398;2023-03-14T04:14:40;8.80;99.90
58951;DHT22;44730;53.158;6.398;2023-03-14T04:17:07;8.80;99.90
58951;DHT22;44730;53.158;6.398;2023-03-14T04:19:32;8.80;99.90
58951;DHT22;44730;53.158;6.398;2023-03-14T04:21:58;8.80;99.90
58951;DHT22;44730;53.158;6.398;2023-03-14T04:24:24;8.80;99.90
58951;DHT22;44730;53.158;6.398;2023-03-14T04:26:50;8.80;99.90
58951;DHT22;44730;53.158;6.398;2023-03-14T04:29:15;8.80;99.90
58951;DHT22;44730;53.158;6.398;2023-03-14T04:31:41;8.80;99.90
58951;DHT22;44730;53.158;6.398;2023-03-14T04:34:10;8.70;99.90
58951;DHT22;44730;53.158;6.398;2023-03-14T04:36:36;8.80;99.90
58951;DHT22;44730;53.158;6.398;2023-03-14T04:39:01;8.70;99.90
58951;DHT22;44730;53.158;6.398;2023-03-14T04:41:28;8.70;99.90
58951;DHT22;44730;53.158;6.398;2023-03-14T04:43:54;8.70;99.90
58951;DHT22;44730;53.158;6.398;2023-03-14T04:46:19;8.60;99.90
58951;DHT22;44730;53.158;6.398;2023-03-14T04:48:45;8.60;99.90
58951;DHT22;44730;53.158;6.398;2023-03-14T04:51:11;8.60;99.90
58951;DHT22;44730;53.158;6.398;2023-03-14T04:53:37;8.80;99.90
58951;DHT22;44730;53.158;6.398;2023-03-14T04:56:03;8.60;99.90
58951;DHT22;44730;53.158;6.398;2023-03-14T04:58:29;8.60;99.90
58951;DHT22;44730;53.158;6.398;2023-03-14T05:00:55;8.60;99.90
58951;DHT22;44730;53.158;6.398;2023-03-14T05:03:21;8.60;99.90
58951;DHT22;44730;53.158;6.398;2023-03-14T05:05:47;8.60;99.90
58951;DHT22;44730;53.158;6.398;2023-03-14T05:08:12;8.60;99.90
58951;DHT22;44730;53.158;6.398;2023-03-14T05:10:38;8.60;99.90
58951;DHT22;44730;53.158;6.398;2023-03-14T05:13:04;8.60;99.90
58951;DHT22;44730;53.158;6.398;2023-03-14T05:15:30;8.60;99.90
58951;DHT22;44730;53.158;6.398;2023-03-14T05:17:55;8.60;99.90
58951;DHT22;44730;53.158;6.398;2023-03-14T05:20:21;8.60;99.90
58951;DHT22;44730;53.158;6.398;2023-03-14T05:22:47;8.50;99.90
58951;DHT22;44730;53.158;6.398;2023-03-14T05:25:13;8.50;99.90
58951;DHT22;44730;53.158;6.398;2023-03-14T05:27:39;8.50;99.90
58951;DHT22;44730;53.158;6.398;2023-03-14T05:30:05;8.60;99.90
58951;DHT22;44730;53.158;6.398;2023-03-14T05:32:31;8.50;99.90
58951;DHT22;44730;53.158;6.398;2023-03-14T05:34:58;8.40;99.90
58951;DHT22;44730;53.158;6.398;2023-03-14T05:37:28;8.50;99.90
58951;DHT22;44730;53.158;6.398;2023-03-14T05:39:53;8.40;99.90
58951;DHT22;44730;53.158;6.398;2023-03-14T05:42:19;8.40;99.90
58951;DHT22;44730;53.158;6.398;2023-03-14T05:44:45;8.40;99.90
58951;DHT22;44730;53.158;6.398;2023-03-14T05:47:11;8.40;99.90
58951;DHT22;44730;53.158;6.398;2023-03-14T05:49:37;8.40;99.90
58951;DHT22;44730;53.158;6.398;2023-03-14T05:52:03;8.40;99.90
58951;DHT22;44730;53.158;6.398;2023-03-14T05:54:29;8.40;99.90
58951;DHT22;44730;53.158;6.398;2023-03-14T05:56:54;8.40;99.90
58951;DHT22;44730;53.158;6.398;2023-03-14T05:59:20;8.40;99.90
58951;DHT22;44730;53.158;6.398;2023-03-14T06:01:46;8.50;99.90
58951;DHT22;44730;53.158;6.398;2023-03-14T06:04:11;8.40;99.90
58951;DHT22;44730;53.158;6.398;2023-03-14T06:06:38;8.40;99.90
58951;DHT22;44730;53.158;6.398;2023-03-14T06:09:04;8.30;99.90
58951;DHT22;44730;53.158;6.398;2023-03-14T06:11:30;8.40;99.90
58951;DHT22;44730;53.158;6.398;2023-03-14T06:13:56;8.40;99.90
58951;DHT22;44730;53.158;6.398;2023-03-14T06:16:21;8.40;99.90
58951;DHT22;44730;53.158;6.398;2023-03-14T06:18:47;8.50;99.90
58951;DHT22;44730;53.158;6.398;2023-03-14T06:21:14;8.40;99.90
58951;DHT22;44730;53.158;6.398;2023-03-14T06:23:40;8.40;99.90
58951;DHT22;44730;53.158;6.398;2023-03-14T06:26:06;8.40;99.90
58951;DHT22;44730;53.158;6.398;2023-03-14T06:28:32;8.30;99.90
58951;DHT22;44730;53.158;6.398;2023-03-14T06:30:59;8.20;99.90
58951;DHT22;44730;53.158;6.398;2023-03-14T06:33:25;7.90;99.90
58951;DHT22;44730;53.158;6.398;2023-03-14T06:35:50;7.50;99.90
58951;DHT22;44730;53.158;6.398;2023-03-14T06:38:16;7.20;99.90
58951;DHT22;44730;53.158;6.398;2023-03-14T06:40:42;7.00;99.90
58951;DHT22;44730;53.158;6.398;2023-03-14T06:43:08;6.90;99.90
58951;DHT22;44730;53.158;6.398;2023-03-14T06:45:33;6.70;99.90
58951;DHT22;44730;53.158;6.398;2023-03-14T06:47:59;6.60;99.90
58951;DHT22;44730;53.158;6.398;2023-03-14T06:50:25;6.50;99.90
58951;DHT22;44730;53.158;6.398;2023-03-14T06:52:50;6.40;99.90
58951;DHT22;44730;53.158;6.398;2023-03-14T06:55:16;6.30;99.90
58951;DHT22;44730;53.158;6.398;2023-03-14T06:57:42;6.10;99.90
58951;DHT22;44730;53.158;6.398;2023-03-14T07:00:10;6.00;99.90
58951;DHT22;44730;53.158;6.398;2023-03-14T07:02:36;5.70;99.90
58951;DHT22;44730;53.158;6.398;2023-03-14T07:05:03;5.60;99.90
58951;DHT22;44730;53.158;6.398;2023-03-14T07:07:29;5.50;99.90
58951;DHT22;44730;53.158;6.398;2023-03-14T07:09:54;5.20;99.90
58951;DHT22;44730;53.158;6.398;2023-03-14T07:12:20;5.10;99.90
58951;DHT22;44730;53.158;6.398;2023-03-14T07:14:46;5.00;99.90
58951;DHT22;44730;53.158;6.398;2023-03-14T07:17:11;5.10;99.90
58951;DHT22;44730;53.158;6.398;2023-03-14T07:19:37;4.70;99.90
58951;DHT22;44730;53.158;6.398;2023-03-14T07:22:04;4.80;99.90
58951;DHT22;44730;53.158;6.398;2023-03-14T07:24:30;4.50;99.90
58951;DHT22;44730;53.158;6.398;2023-03-14T07:26:56;4.50;99.90
58951;DHT22;44730;53.158;6.398;2023-03-14T07:29:22;4.40;99.90
58951;DHT22;44730;53.158;6.398;2023-03-14T07:31:47;4.40;99.90
58951;DHT22;44730;53.158;6.398;2023-03-14T07:34:13;4.40;99.90
58951;DHT22;44730;53.158;6.398;2023-03-14T07:36:39;4.40;99.90
58951;DHT22;44730;53.158;6.398;2023-03-14T07:39:05;4.40;99.90
58951;DHT22;44730;53.158;6.398;2023-03-14T07:41:31;4.40;99.90
58951;DHT22;44730;53.158;6.398;2023-03-14T07:43:57;4.40;99.90
58951;DHT22;44730;53.158;6.398;2023-03-14T07:46:23;4.40;99.90
58951;DHT22;44730;53.158;6.398;2023-03-14T07:48:49;4.40;99.90
58951;DHT22;44730;53.158;6.398;2023-03-14T07:51:15;4.40;99.90
58951;DHT22;44730;53.158;6.398;2023-03-14T07:53:42;4.40;99.90
58951;DHT22;44730;53.158;6.398;2023-03-14T07:56:08;4.50;99.90
58951;DHT22;44730;53.158;6.398;2023-03-14T07:58:34;4.50;99.90
58951;DHT22;44730;53.158;6.398;2023-03-14T08:01:00;4.50;99.90
58951;DHT22;44730;53.158;6.398;2023-03-14T08:03:26;4.60;99.90
58951;DHT22;44730;53.158;6.398;2023-03-14T08:05:51;4.60;99.90
58951;DHT22;44730;53.158;6.398;2023-03-14T08:08:17;4.70;99.90
58951;DHT22;44730;53.158;6.398;2023-03-14T08:10:43;4.70;99.90
58951;DHT22;44730;53.158;6.398;2023-03-14T08:13:09;4.80;99.90
58951;DHT22;44730;53.158;6.398;2023-03-14T08:15:35;4.80;99.90
58951;DHT22;44730;53.158;6.398;2023-03-14T08:18:03;5.00;99.90
58951;DHT22;44730;53.158;6.398;2023-03-14T08:20:29;5.00;99.90
58951;DHT22;44730;53.158;6.398;2023-03-14T08:23:00;5.10;99.90
58951;DHT22;44730;53.158;6.398;2023-03-14T08:25:28;5.10;99.90
58951;DHT22;44730;53.158;6.398;2023-03-14T08:27:54;5.20;99.90
58951;DHT22;44730;53.158;6.398;2023-03-14T08:30:21;5.30;99.90
58951;DHT22;44730;53.158;6.398;2023-03-14T08:32:47;5.30;99.90
58951;DHT22;44730;53.158;6.398;2023-03-14T08:35:14;5.40;99.90
58951;DHT22;44730;53.158;6.398;2023-03-14T08:37:40;5.50;99.90
58951;DHT22;44730;53.158;6.398;2023-03-14T08:40:06;5.70;99.90
58951;DHT22;44730;53.158;6.398;2023-03-14T08:42:33;5.90;99.90
58951;DHT22;44730;53.158;6.398;2023-03-14T08:44:58;6.20;99.90
58951;DHT22;44730;53.158;6.398;2023-03-14T08:47:24;6.40;99.90
58951;DHT22;44730;53.158;6.398;2023-03-14T08:49:50;6.50;99.90
58951;DHT22;44730;53.158;6.398;2023-03-14T08:52:16;6.50;99.90
58951;DHT22;44730;53.158;6.398;2023-03-14T08:54:43;6.50;99.90
58951;DHT22;44730;53.158;6.398;2023-03-14T08:57:09;6.50;99.90
58951;DHT22;44730;53.158;6.398;2023-03-14T08:59:35;6.60;99.90
58951;DHT22;44730;53.158;6.398;2023-03-14T09:02:01;6.60;99.90
58951;DHT22;44730;53.158;6.398;2023-03-14T09:04:29;6.70;99.90
58951;DHT22;44730;53.158;6.398;2023-03-14T09:06:55;7.10;99.90
58951;DHT22;44730;53.158;6.398;2023-03-14T09:09:24;7.30;99.90
58951;DHT22;44730;53.158;6.398;2023-03-14T09:11:51;7.70;99.90
58951;DHT22;44730;53.158;6.398;2023-03-14T09:14:17;8.10;99.90
58951;DHT22;44730;53.158;6.398;2023-03-14T09:16:43;8.40;99.90
58951;DHT22;44730;53.158;6.398;2023-03-14T09:19:09;8.50;99.90
58951;DHT22;44730;53.158;6.398;2023-03-14T09:21:34;8.60;99.90
58951;DHT22;44730;53.158;6.398;2023-03-14T09:24:00;8.60;99.90
58951;DHT22;44730;53.158;6.398;2023-03-14T09:26:26;8.30;99.90
58951;DHT22;44730;53.158;6.398;2023-03-14T09:28:51;8.00;99.90
58951;DHT22;44730;53.158;6.398;2023-03-14T09:31:17;7.70;99.90
58951;DHT22;44730;53.158;6.398;2023-03-14T09:33:43;7.60;99.90
58951;DHT22;44730;53.158;6.398;2023-03-14T09:36:10;7.50;99.90
58951;DHT22;44730;53.158;6.398;2023-03-14T09:38:36;7.40;99.90
58951;DHT22;44730;53.158;6.398;2023-03-14T09:41:06;7.40;99.90
58951;DHT22;44730;53.158;6.398;2023-03-14T09:43:37;7.40;99.90
58951;DHT22;44730;53.158;6.398;2023-03-14T09:46:05;7.30;99.90
58951;DHT22;44730;53.158;6.398;2023-03-14T09:48:33;7.40;99.90
58951;DHT22;44730;53.158;6.398;2023-03-14T09:51:03;7.40;99.90
58951;DHT22;44730;53.158;6.398;2023-03-14T09:53:45;7.40;99.90
58951;DHT22;44730;53.158;6.398;2023-03-14T09:56:17;7.30;99.90
58951;DHT22;44730;53.158;6.398;2023-03-14T09:58:56;7.20;99.90
58951;DHT22;44730;53.158;6.398;2023-03-14T10:01:26;7.10;99.90
58951;DHT22;44730;53.158;6.398;2023-03-14T10:03:55;7.10;99.90
58951;DHT22;44730;53.158;6.398;2023-03-14T10:06:26;7.10;99.90
58951;DHT22;44730;53.158;6.398;2023-03-14T10:08:52;7.10;99.90
58951;DHT22;44730;53.158;6.398;2023-03-14T10:11:18;7.00;99.90
58951;DHT22;44730;53.158;6.398;2023-03-14T10:14:08;7.10;99.90
58951;DHT22;44730;53.158;6.398;2023-03-14T10:16:43;7.20;99.90
58951;DHT22;44730;53.158;6.398;2023-03-14T10:19:12;7.40;99.90
58951;DHT22;44730;53.158;6.398;2023-03-14T10:21:40;7.50;99.90
58951;DHT22;44730;53.158;6.398;2023-03-14T10:24:27;7.60;99.90
58951;DHT22;44730;53.158;6.398;2023-03-14T10:27:04;7.70;99.90
58951;DHT22;44730;53.158;6.398;2023-03-14T10:29:32;7.80;99.90
58951;DHT22;44730;53.158;6.398;2023-03-14T10:32:04;7.90;99.90
58951;DHT22;44730;53.158;6.398;2023-03-14T10:34:38;7.90;99.90
58951;DHT22;44730;53.158;6.398;2023-03-14T10:37:17;7.90;99.90
58951;DHT22;44730;53.158;6.398;2023-03-14T10:39:49;7.90;99.90
58951;DHT22;44730;53.158;6.398;2023-03-14T10:42:23;8.30;99.90
58951;DHT22;44730;53.158;6.398;2023-03-14T10:45:01;9.00;99.90
58951;DHT22;44730;53.158;6.398;2023-03-14T10:47:28;9.80;99.90
58951;DHT22;44730;53.158;6.398;2023-03-14T10:49:55;10.00;99.90
58951;DHT22;44730;53.158;6.398;2023-03-14T10:52:23;9.80;99.90
58951;DHT22;44730;53.158;6.398;2023-03-14T10:54:57;9.50;99.90
58951;DHT22;44730;53.158;6.398;2023-03-14T10:57:23;9.00;99.90
58951;DHT22;44730;53.158;6.398;2023-03-14T10:59:49;8.80;99.90
58951;DHT22;44730;53.158;6.398;2023-03-14T11:02:24;8.70;99.90
58951;DHT22;44730;53.158;6.398;2023-03-14T11:07:46;8.80;99.90
58951;DHT22;44730;53.158;6.398;2023-03-14T11:10:39;8.80;99.90
58951;DHT22;44730;53.158;6.398;2023-03-14T11:19:06;8.70;99.90
58951;DHT22;44730;53.158;6.398;2023-03-14T11:32:34;8.40;99.90
58951;DHT22;44730;53.158;6.398;2023-03-14T11:35:04;8.40;99.90
58951;DHT22;44730;53.158;6.398;2023-03-14T11:40:11;8.60;99.90
58951;DHT22;44730;53.158;6.398;2023-03-14T11:42:41;8.50;99.90
58951;DHT22;44730;53.158;6.398;2023-03-14T11:45:18;9.20;99.90
58951;DHT22;44730;53.158;6.398;2023-03-14T11:47:47;9.40;99.90
58951;DHT22;44730;53.158;6.398;2023-03-14T11:50:16;9.80;99.90
58951;DHT22;44730;53.158;6.398;2023-03-14T11:55:33;11.60;99.90
58951;DHT22;44730;53.158;6.398;2023-03-14T11:58:11;12.30;99.90
58951;DHT22;44730;53.158;6.398;2023-03-14T12:00:40;12.80;99.40
58951;DHT22;44730;53.158;6.398;2023-03-14T12:06:01;13.10;96.90
58951;DHT22;44730;53.158;6.398;2023-03-14T12:08:52;11.90;98.60
58951;DHT22;44730;53.158;6.398;2023-03-14T12:13:53;12.50;98.50
58951;DHT22;44730;53.158;6.398;2023-03-14T12:18:52;14.50;96.40
58951;DHT22;44730;53.158;6.398;2023-03-14T12:21:18;15.00;95.80
58951;DHT22;44730;53.158;6.398;2023-03-14T12:23:48;14.20;95.20
58951;DHT22;44730;53.158;6.398;2023-03-14T12:26:15;13.10;95.90
58951;DHT22;44730;53.158;6.398;2023-03-14T12:28:44;12.20;95.60
58951;DHT22;44730;53.158;6.398;2023-03-14T12:37:14;11.60;97.00
58951;DHT22;44730;53.158;6.398;2023-03-14T12:39:49;12.20;95.20
58951;DHT22;44730;53.158;6.398;2023-03-14T12:48:21;12.80;92.90
58951;DHT22;44730;53.158;6.398;2023-03-14T12:50:55;12.80;93.40
58951;DHT22;44730;53.158;6.398;2023-03-14T12:56:11;12.90;94.40
58951;DHT22;44730;53.158;6.398;2023-03-14T12:59:13;13.10;93.20
58951;DHT22;44730;53.158;6.398;2023-03-14T13:01:53;13.20;93.80
58951;DHT22;44730;53.158;6.398;2023-03-14T13:04:19;13.40;93.00
58951;DHT22;44730;53.158;6.398;2023-03-14T13:06:52;14.30;95.00
58951;DHT22;44730;53.158;6.398;2023-03-14T13:12:14;14.10;91.30
58951;DHT22;44730;53.158;6.398;2023-03-14T13:14:49;14.40;83.00
58951;DHT22;44730;53.158;6.398;2023-03-14T13:17:24;14.80;83.00
58951;DHT22;44730;53.158;6.398;2023-03-14T13:20:02;15.00;82.80
58951;DHT22;44730;53.158;6.398;2023-03-14T13:22:33;14.90;82.00
58951;DHT22;44730;53.158;6.398;2023-03-14T13:25:05;14.50;82.30
58951;DHT22;44730;53.158;6.398;2023-03-14T13:27:34;14.00;80.80
58951;DHT22;44730;53.158;6.398;2023-03-14T13:30:11;13.50;83.80
58951;DHT22;44730;53.158;6.398;2023-03-14T13:32:42;13.40;85.10
58951;DHT22;44730;53.158;6.398;2023-03-14T13:35:42;13.50;84.00
58951;DHT22;44730;53.158;6.398;2023-03-14T13:38:18;13.30;81.50
58951;DHT22;44730;53.158;6.398;2023-03-14T13:40:45;12.80;82.70
58951;DHT22;44730;53.158;6.398;2023-03-14T13:45:49;13.00;84.20
58951;DHT22;44730;53.158;6.398;2023-03-14T13:48:16;14.20;90.10
58951;DHT22;44730;53.158;6.398;2023-03-14T13:50:58;15.10;89.50
58951;DHT22;44730;53.158;6.398;2023-03-14T13:53:25;16.20;87.60
58951;DHT22;44730;53.158;6.398;2023-03-14T13:55:51;17.30;86.70
58951;DHT22;44730;53.158;6.398;2023-03-14T13:58:26;17.80;82.90
58951;DHT22;44730;53.158;6.398;2023-03-14T14:01:04;16.40;78.10
58951;DHT22;44730;53.158;6.398;2023-03-14T14:03:33;15.60;80.30
58951;DHT22;44730;53.158;6.398;2023-03-14T14:05:59;15.60;75.60
58951;DHT22;44730;53.158;6.398;2023-03-14T14:08:26;15.90;76.30
58951;DHT22;44730;53.158;6.398;2023-03-14T14:10:56;15.20;72.50
58951;DHT22;44730;53.158;6.398;2023-03-14T14:13:24;13.90;74.60
58951;DHT22;44730;53.158;6.398;2023-03-14T14:15:54;12.60;77.20
58951;DHT22;44730;53.158;6.398;2023-03-14T14:18:23;11.80;80.10
58951;DHT22;44730;53.158;6.398;2023-03-14T14:20:51;11.20;80.70
58951;DHT22;44730;53.158;6.398;2023-03-14T14:23:19;10.50;83.00
58951;DHT22;44730;53.158;6.398;2023-03-14T14:25:51;10.00;83.70
58951;DHT22;44730;53.158;6.398;2023-03-14T14:30:46;9.20;87.40
58951;DHT22;44730;53.158;6.398;2023-03-14T14:33:24;8.80;89.40
58951;DHT22;44730;53.158;6.398;2023-03-14T14:35:56;8.40;91.50
58951;DHT22;44730;53.158;6.398;2023-03-14T14:38:22;8.20;93.40
58951;DHT22;44730;53.158;6.398;2023-03-14T14:40:51;8.10;95.30
58951;DHT22;44730;53.158;6.398;2023-03-14T14:43:24;7.90;95.60
58951;DHT22;44730;53.158;6.398;2023-03-14T14:45:53;8.40;96.60
58951;DHT22;44730;53.158;6.398;2023-03-14T14:48:23;9.20;96.40
58951;DHT22;44730;53.158;6.398;2023-03-14T14:53:30;9.30;94.60
58951;DHT22;44730;53.158;6.398;2023-03-14T14:55:58;9.00;93.30
58951;DHT22;44730;53.158;6.398;2023-03-14T14:58:40;9.00;93.60
58951;DHT22;44730;53.158;6.398;2023-03-14T15:01:21;9.90;92.60
58951;DHT22;44730;53.158;6.398;2023-03-14T15:03:50;10.70;91.70
58951;DHT22;44730;53.158;6.398;2023-03-14T15:06:17;10.80;91.20
58951;DHT22;44730;53.158;6.398;2023-03-14T15:08:45;10.40;91.30
58951;DHT22;44730;53.158;6.398;2023-03-14T15:11:20;9.80;91.80
58951;DHT22;44730;53.158;6.398;2023-03-14T15:13:48;9.30;91.60
58951;DHT22;44730;53.158;6.398;2023-03-14T15:16:17;8.80;92.20
58951;DHT22;44730;53.158;6.398;2023-03-14T15:18:43;8.60;93.30
58951;DHT22;44730;53.158;6.398;2023-03-14T15:21:10;8.40;95.50
58951;DHT22;44730;53.158;6.398;2023-03-14T15:23:36;8.30;96.50
58951;DHT22;44730;53.158;6.398;2023-03-14T15:26:02;8.50;97.30
58951;DHT22;44730;53.158;6.398;2023-03-14T15:28:29;8.50;98.10
58951;DHT22;44730;53.158;6.398;2023-03-14T15:30:57;8.40;95.90
58951;DHT22;44730;53.158;6.398;2023-03-14T15:33:24;8.30;94.60
58951;DHT22;44730;53.158;6.398;2023-03-14T15:35:50;7.90;94.40
58951;DHT22;44730;53.158;6.398;2023-03-14T15:38:18;7.70;94.60
58951;DHT22;44730;53.158;6.398;2023-03-14T15:40:49;7.50;95.50
58951;DHT22;44730;53.158;6.398;2023-03-14T15:43:15;7.20;95.70
58951;DHT22;44730;53.158;6.398;2023-03-14T15:45:41;7.00;96.60
58951;DHT22;44730;53.158;6.398;2023-03-14T15:48:17;6.90;97.10
58951;DHT22;44730;53.158;6.398;2023-03-14T15:50:43;6.90;97.70
58951;DHT22;44730;53.158;6.398;2023-03-14T15:53:09;6.80;97.80
58951;DHT22;44730;53.158;6.398;2023-03-14T15:55:35;6.60;97.90
58951;DHT22;44730;53.158;6.398;2023-03-14T15:58:01;6.50;98.30
58951;DHT22;44730;53.158;6.398;2023-03-14T16:00:29;6.40;99.00
58951;DHT22;44730;53.158;6.398;2023-03-14T16:02:54;6.30;99.30
58951;DHT22;44730;53.158;6.398;2023-03-14T16:05:20;6.30;99.50
58951;DHT22;44730;53.158;6.398;2023-03-14T16:07:46;6.20;99.60
58951;DHT22;44730;53.158;6.398;2023-03-14T16:10:13;6.20;99.50
58951;DHT22;44730;53.158;6.398;2023-03-14T16:12:40;6.10;99.70
58951;DHT22;44730;53.158;6.398;2023-03-14T16:15:07;6.20;99.90
58951;DHT22;44730;53.158;6.398;2023-03-14T16:17:33;6.20;99.90
58951;DHT22;44730;53.158;6.398;2023-03-14T16:19:59;6.10;99.90
58951;DHT22;44730;53.158;6.398;2023-03-14T16:22:25;6.00;99.90
58951;DHT22;44730;53.158;6.398;2023-03-14T16:24:51;6.00;99.90
58951;DHT22;44730;53.158;6.398;2023-03-14T16:27:16;5.90;99.90
58951;DHT22;44730;53.158;6.398;2023-03-14T16:29:42;5.70;99.90
58951;DHT22;44730;53.158;6.398;2023-03-14T16:32:08;5.60;99.90
58951;DHT22;44730;53.158;6.398;2023-03-14T16:34:37;5.50;99.90
58951;DHT22;44730;53.158;6.398;2023-03-14T16:37:04;5.50;99.90
58951;DHT22;44730;53.158;6.398;2023-03-14T16:39:30;5.50;99.90
58951;DHT22;44730;53.158;6.398;2023-03-14T16:41:57;5.50;99.90
58951;DHT22;44730;53.158;6.398;2023-03-14T16:44:23;5.60;99.90
58951;DHT22;44730;53.158;6.398;2023-03-14T16:46:49;5.40;99.90
58951;DHT22;44730;53.158;6.398;2023-03-14T16:49:14;5.40;99.90
58951;DHT22;44730;53.158;6.398;2023-03-14T16:51:40;5.40;99.90
58951;DHT22;44730;53.158;6.398;2023-03-14T16:54:06;5.30;99.90
58951;DHT22;44730;53.158;6.398;2023-03-14T16:56:38;5.40;99.90